Goiana, Brazil
Current Conditions -  °F | °C
As of 2:00 PM on Tuesday 21 Oct 2014 (Local Time) from SBJP Reporting Station
Broken Clouds Broken Clouds  
Wind Chill: 84°   Ceiling: 4000
Heat Index: 86°   Visibility: 6mi
Dew Point: 66°   Wind: 13mph
Humidity: 55%   Direction: 100°E
Pressure: 29.91"   Gusts: NA
Location:  7.56°S, 35°W
Report Text: SBJP 211700Z 10011KT 9999 BKN040 29/19 Q1013
Loading
Personal Weather Stations






























Interactive Weather Map
Tropical Storm Tracking
New forecast layout! Learn more

10-Day Weather Forecast

Advertisements
Track Severe Weather on mobile